Time;durP1;ratioP1;P1;durP2;ratioP2;P2;SDS_P1;SDS_P2;PMS_P1;PMS_P2;Temp;Humidity;BMP_temperature;BMP_pressure;BME280_temperature;BME280_humidity;BME280_pressure;Samples;Min_cycle;Max_cycle;Signal;HPM_P1;HPM_P2
2020/12/14 00:00:44;;;;;;;58.88;31.20;;;5.90;99.90;;;;;;5032612;28;20028;-69
2020/12/14 00:03:09;;;;;;;45.10;24.85;;;5.90;99.90;;;;;;5033127;28;20059;-70
2020/12/14 00:05:35;;;;;;;48.40;25.58;;;5.90;99.90;;;;;;5033580;28;20018;-68
2020/12/14 00:08:01;;;;;;;49.72;22.52;;;5.90;99.90;;;;;;5032737;28;20106;-73
2020/12/14 00:10:27;;;;;;;49.40;25.75;;;5.70;99.90;;;;;;5042096;28;20056;-69
2020/12/14 00:12:52;;;;;;;42.67;23.45;;;5.70;99.90;;;;;;5045200;28;20029;-70
2020/12/14 00:15:18;;;;;;;51.13;25.20;;;5.60;99.90;;;;;;5046855;28;20597;-70
2020/12/14 00:17:44;;;;;;;49.83;25.80;;;5.60;99.90;;;;;;5041261;28;20053;-70
2020/12/14 00:20:09;;;;;;;51.88;25.80;;;5.60;99.90;;;;;;5037765;28;20099;-69
2020/12/14 00:22:35;;;;;;;48.72;25.17;;;5.60;99.90;;;;;;5037039;28;20033;-69
2020/12/14 00:25:03;;;;;;;58.17;28.55;;;5.60;99.90;;;;;;5043284;28;20060;-70
2020/12/14 00:27:29;;;;;;;51.92;26.10;;;5.60;99.90;;;;;;5032849;28;20036;-70
2020/12/14 00:29:55;;;;;;;54.00;26.20;;;5.70;99.90;;;;;;5032381;28;20029;-68
2020/12/14 00:32:20;;;;;;;55.55;27.98;;;5.70;99.90;;;;;;5033216;28;20061;-70
2020/12/14 00:34:46;;;;;;;41.88;23.58;;;5.60;99.90;;;;;;5032716;28;20025;-70
2020/12/14 00:37:12;;;;;;;47.50;23.42;;;5.60;99.90;;;;;;5032651;28;20037;-68
2020/12/14 00:39:38;;;;;;;47.20;22.67;;;5.60;99.90;;;;;;5032524;28;20039;-69
2020/12/14 00:42:04;;;;;;;45.47;24.13;;;5.60;99.90;;;;;;5032671;28;20033;-71
2020/12/14 00:44:30;;;;;;;52.08;27.45;;;5.70;99.90;;;;;;5032435;28;20034;-69
2020/12/14 00:46:56;;;;;;;47.72;26.15;;;5.70;99.90;;;;;;5032690;28;20036;-67
2020/12/14 00:49:22;;;;;;;52.03;25.33;;;5.70;99.90;;;;;;5032680;28;20434;-71
2020/12/14 00:51:48;;;;;;;52.40;23.95;;;5.70;99.90;;;;;;5032341;28;20431;-71
2020/12/14 00:54:14;;;;;;;37.63;20.33;;;5.70;99.90;;;;;;5032899;28;20119;-70
2020/12/14 00:56:39;;;;;;;45.28;23.08;;;5.60;99.90;;;;;;5031965;28;20068;-69
2020/12/14 00:59:05;;;;;;;38.03;21.92;;;5.60;99.90;;;;;;5032685;28;20035;-70
2020/12/14 01:01:31;;;;;;;46.58;24.95;;;5.60;99.90;;;;;;5032679;28;20108;-69
2020/12/14 01:03:57;;;;;;;48.85;24.45;;;5.60;99.90;;;;;;5020124;28;20539;-72
2020/12/14 01:06:23;;;;;;;42.58;21.92;;;5.60;99.90;;;;;;5032782;28;20387;-68
2020/12/14 01:08:48;;;;;;;46.08;23.33;;;5.60;99.90;;;;;;5031807;28;20036;-69
2020/12/14 01:11:14;;;;;;;46.90;22.80;;;5.50;99.90;;;;;;5032480;28;20030;-72
2020/12/14 01:13:40;;;;;;;40.83;21.75;;;5.50;99.90;;;;;;5032734;28;20028;-70
2020/12/14 01:16:09;;;;;;;33.75;18.30;;;5.50;99.90;;;;;;5032107;28;20029;-69
2020/12/14 01:18:38;;;;;;;37.75;21.08;;;5.50;99.90;;;;;;5032255;28;20502;-69
2020/12/14 01:21:05;;;;;;;39.65;22.13;;;5.50;99.90;;;;;;5032499;28;20037;-72
2020/12/14 01:23:30;;;;;;;38.38;20.33;;;5.50;99.90;;;;;;5032089;28;20144;-70
2020/12/14 01:25:56;;;;;;;34.67;21.08;;;5.50;99.90;;;;;;5031978;28;20109;-70
2020/12/14 01:28:22;;;;;;;46.03;22.38;;;5.50;99.90;;;;;;5032354;28;20029;-68
2020/12/14 01:30:47;;;;;;;36.65;19.85;;;5.50;99.90;;;;;;5031716;28;20057;-68
2020/12/14 01:33:13;;;;;;;39.30;20.65;;;5.40;99.90;;;;;;5032477;28;20030;-68
2020/12/14 01:35:39;;;;;;;36.42;20.88;;;5.40;99.90;;;;;;5036044;28;20052;-69
2020/12/14 01:38:05;;;;;;;39.05;20.13;;;5.40;99.90;;;;;;5032600;28;20030;-69
2020/12/14 01:40:31;;;;;;;32.50;19.42;;;5.40;99.90;;;;;;5032182;28;20452;-69
2020/12/14 01:42:56;;;;;;;41.95;19.35;;;5.40;99.90;;;;;;5031835;28;20036;-69
2020/12/14 01:45:23;;;;;;;39.42;20.17;;;5.40;99.90;;;;;;5031286;28;20468;-68
2020/12/14 01:47:50;;;;;;;39.58;18.83;;;5.40;99.90;;;;;;5031015;28;20021;-70
2020/12/14 01:50:16;;;;;;;40.47;19.83;;;5.40;99.90;;;;;;5032057;28;20117;-68
2020/12/14 01:52:44;;;;;;;34.85;19.73;;;5.40;99.90;;;;;;5031379;28;20031;-69
2020/12/14 01:55:15;;;;;;;39.22;18.85;;;5.40;99.90;;;;;;5031898;28;20073;-69
2020/12/14 01:57:41;;;;;;;36.90;21.38;;;5.40;99.90;;;;;;5035539;28;20017;-68
2020/12/14 02:00:12;;;;;;;41.22;20.65;;;5.40;99.90;;;;;;5033126;28;20108;-69
2020/12/14 02:02:38;;;;;;;39.40;21.42;;;5.40;99.90;;;;;;5031624;28;20391;-68
2020/12/14 02:05:06;;;;;;;42.50;23.05;;;5.50;99.90;;;;;;5032027;28;20076;-68
2020/12/14 02:07:32;;;;;;;35.15;20.55;;;5.40;99.90;;;;;;5031139;28;20116;-69
2020/12/14 02:09:58;;;;;;;42.45;20.73;;;5.50;99.90;;;;;;5032066;28;20025;-69
2020/12/14 02:12:25;;;;;;;39.85;21.08;;;5.50;99.90;;;;;;5030795;28;20099;-69
2020/12/14 02:14:56;;;;;;;42.63;20.27;;;5.50;99.90;;;;;;5063470;28;20021;-68
2020/12/14 02:17:24;;;;;;;39.33;21.88;;;5.50;99.90;;;;;;5046277;28;20108;-70
2020/12/14 02:19:54;;;;;;;35.95;19.25;;;5.50;99.90;;;;;;5048034;28;20115;-69
2020/12/14 02:22:27;;;;;;;44.05;22.63;;;5.40;99.90;;;;;;5047695;28;20079;-69
2020/12/14 02:24:55;;;;;;;36.38;19.95;;;5.40;99.90;;;;;;5065727;28;20033;-70
2020/12/14 02:27:23;;;;;;;41.38;22.52;;;5.50;99.90;;;;;;5034944;28;20037;-69
2020/12/14 02:29:48;;;;;;;43.75;22.35;;;5.50;99.90;;;;;;5034575;28;20413;-69
2020/12/14 02:32:19;;;;;;;38.67;22.50;;;5.50;99.90;;;;;;5034934;28;20075;-69
2020/12/14 02:34:46;;;;;;;40.30;22.67;;;5.50;99.90;;;;;;5033567;28;20025;-69
2020/12/14 02:37:15;;;;;;;39.00;21.13;;;5.50;99.90;;;;;;5034292;28;20033;-69
2020/12/14 02:39:41;;;;;;;44.45;21.20;;;5.40;99.90;;;;;;5035037;28;20103;-69
2020/12/14 02:42:25;;;;;;;33.30;19.05;;;5.40;99.90;;;;;;5034899;28;20364;-69
2020/12/14 02:44:51;;;;;;;39.83;20.65;;;5.50;99.90;;;;;;5034630;28;20112;-69
2020/12/14 02:47:17;;;;;;;36.20;20.50;;;5.40;99.90;;;;;;5035060;28;20025;-68
2020/12/14 02:49:44;;;;;;;41.00;20.52;;;5.40;99.90;;;;;;5034675;28;20068;-70
2020/12/14 02:52:11;;;;;;;42.10;20.23;;;5.40;99.90;;;;;;5034153;28;20131;-68
2020/12/14 02:54:38;;;;;;;34.72;19.58;;;5.40;99.90;;;;;;5039249;28;20096;-69
2020/12/14 02:57:04;;;;;;;40.63;18.42;;;5.40;99.90;;;;;;5034531;28;20484;-69
2020/12/14 02:59:30;;;;;;;36.70;19.27;;;5.40;99.90;;;;;;5033978;28;20029;-68
2020/12/14 03:01:56;;;;;;;39.22;19.98;;;5.40;99.90;;;;;;5034027;28;20036;-69
2020/12/14 03:04:22;;;;;;;36.63;19.73;;;5.40;99.90;;;;;;5034510;28;20422;-73
2020/12/14 03:06:49;;;;;;;32.70;18.90;;;5.40;99.90;;;;;;5033894;28;20060;-73
2020/12/14 03:09:20;;;;;;;31.95;18.60;;;5.40;99.90;;;;;;5033820;28;20025;-69
2020/12/14 03:11:47;;;;;;;43.70;21.13;;;5.30;99.90;;;;;;5033507;28;20025;-69
2020/12/14 03:14:13;;;;;;;51.95;19.58;;;5.20;99.90;;;;;;5034045;28;20022;-69
2020/12/14 03:16:47;;;;;;;34.30;17.20;;;5.30;99.90;;;;;;5034277;28;20060;-69
2020/12/14 03:19:13;;;;;;;36.15;18.52;;;5.20;99.90;;;;;;5034202;28;20382;-70
2020/12/14 03:21:39;;;;;;;39.90;18.48;;;5.20;99.90;;;;;;5034135;28;20032;-70
2020/12/14 03:24:04;;;;;;;38.47;19.90;;;5.20;99.90;;;;;;5033768;28;20029;-69
2020/12/14 03:26:30;;;;;;;49.00;20.65;;;5.20;99.90;;;;;;5034084;28;20490;-70
2020/12/14 03:28:56;;;;;;;42.08;20.50;;;5.20;99.90;;;;;;5032645;28;20029;-69
2020/12/14 03:31:22;;;;;;;44.60;21.30;;;5.20;99.90;;;;;;5033764;28;20443;-71
2020/12/14 03:33:50;;;;;;;37.80;20.95;;;5.20;99.90;;;;;;5034207;28;20026;-70
2020/12/14 03:36:16;;;;;;;36.33;19.00;;;5.10;99.90;;;;;;5033564;28;20032;-70
2020/12/14 03:38:41;;;;;;;43.88;21.75;;;5.20;99.90;;;;;;5033435;28;20037;-70
2020/12/14 03:41:08;;;;;;;45.80;20.85;;;5.10;99.90;;;;;;5033956;28;20025;-68
2020/12/14 03:43:34;;;;;;;35.63;19.10;;;5.10;99.90;;;;;;5033578;28;20422;-70
2020/12/14 03:46:00;;;;;;;41.97;21.33;;;5.10;99.90;;;;;;5033479;28;20051;-71
2020/12/14 03:48:26;;;;;;;45.13;22.08;;;5.10;99.90;;;;;;5033726;28;20060;-69
2020/12/14 03:50:52;;;;;;;45.05;22.23;;;5.10;99.90;;;;;;5033278;28;20057;-68
2020/12/14 03:53:18;;;;;;;44.63;23.52;;;5.10;99.90;;;;;;5033497;28;20538;-69
2020/12/14 03:55:44;;;;;;;36.58;20.58;;;5.10;99.90;;;;;;5033539;28;20067;-68
2020/12/14 03:58:10;;;;;;;54.55;23.85;;;5.00;99.90;;;;;;5032736;28;20038;-69
2020/12/14 04:00:36;;;;;;;45.30;22.38;;;5.00;99.90;;;;;;5033765;28;20018;-68
2020/12/14 04:03:06;;;;;;;46.30;22.33;;;5.00;99.90;;;;;;5033641;28;20460;-69
2020/12/14 04:05:32;;;;;;;50.10;24.23;;;5.00;99.90;;;;;;5065848;28;20040;-70
2020/12/14 04:07:57;;;;;;;42.75;21.63;;;5.00;99.90;;;;;;5034136;28;20021;-70
2020/12/14 04:10:23;;;;;;;41.85;20.83;;;4.90;99.90;;;;;;5032694;28;20472;-70
2020/12/14 04:12:49;;;;;;;44.42;22.95;;;4.90;99.90;;;;;;5033486;28;20057;-70
2020/12/14 04:15:14;;;;;;;41.22;21.27;;;4.90;99.90;;;;;;5033656;28;20456;-69
2020/12/14 04:17:40;;;;;;;39.67;20.08;;;4.90;99.90;;;;;;5033522;28;20061;-69
2020/12/14 04:20:06;;;;;;;49.92;23.52;;;5.00;99.90;;;;;;5033323;28;20471;-70
2020/12/14 04:22:32;;;;;;;48.08;21.60;;;5.00;99.90;;;;;;5033698;28;20053;-70
2020/12/14 04:24:57;;;;;;;41.55;22.17;;;5.00;99.90;;;;;;5033628;28;20018;-69
2020/12/14 04:27:23;;;;;;;53.30;27.27;;;5.10;99.90;;;;;;5033391;28;20078;-70
2020/12/14 04:29:49;;;;;;;49.97;26.58;;;5.20;99.90;;;;;;5033819;28;20421;-69
2020/12/14 04:32:15;;;;;;;46.85;22.92;;;5.20;99.90;;;;;;5033783;28;20029;-69
2020/12/14 04:34:41;;;;;;;49.70;22.95;;;5.20;99.90;;;;;;5033035;28;20021;-69
2020/12/14 04:37:06;;;;;;;41.47;20.77;;;5.20;99.90;;;;;;5033378;28;20029;-70
2020/12/14 04:39:32;;;;;;;39.20;22.08;;;5.20;99.90;;;;;;5033406;28;20490;-69
2020/12/14 04:41:58;;;;;;;37.15;20.50;;;5.20;99.90;;;;;;5033290;28;20032;-69
2020/12/14 04:44:24;;;;;;;38.90;20.92;;;5.20;99.90;;;;;;5032648;28;20108;-70
2020/12/14 04:46:50;;;;;;;34.38;19.75;;;5.10;99.90;;;;;;5031737;28;20033;-70
2020/12/14 04:49:16;;;;;;;40.65;20.73;;;5.20;99.90;;;;;;5033368;28;20033;-69
2020/12/14 04:51:43;;;;;;;36.42;21.10;;;5.10;99.90;;;;;;5033351;28;20356;-71
2020/12/14 04:54:09;;;;;;;36.33;20.85;;;5.20;99.90;;;;;;5032785;28;20025;-69
2020/12/14 04:56:40;;;;;;;38.63;21.33;;;5.20;99.90;;;;;;5032642;28;20483;-70
2020/12/14 04:59:07;;;;;;;42.85;20.92;;;5.20;99.90;;;;;;5033126;28;20047;-70
2020/12/14 05:01:33;;;;;;;46.13;21.45;;;5.10;99.90;;;;;;5046967;28;20529;-70
2020/12/14 05:03:58;;;;;;;48.13;21.75;;;5.20;99.90;;;;;;5033521;28;20025;-70
2020/12/14 05:06:24;;;;;;;47.00;25.77;;;5.20;99.90;;;;;;5033023;28;20026;-70
2020/12/14 05:08:50;;;;;;;50.53;26.67;;;5.30;99.90;;;;;;5031574;28;20462;-69
2020/12/14 05:11:33;;;;;;;46.22;25.42;;;5.30;99.90;;;;;;5033016;28;20108;-70
2020/12/14 05:14:18;;;;;;;44.83;23.08;;;5.30;99.90;;;;;;5032847;28;20030;-71
2020/12/14 05:16:44;;;;;;;42.28;23.25;;;5.40;99.90;;;;;;5032591;28;20022;-71
2020/12/14 05:19:21;;;;;;;43.72;23.77;;;5.30;99.90;;;;;;5032988;28;20097;-71
2020/12/14 05:21:50;;;;;;;43.55;23.77;;;5.40;99.90;;;;;;5032826;28;20040;-71
2020/12/14 05:24:26;;;;;;;50.90;24.65;;;5.30;99.90;;;;;;5032994;28;20041;-70
2020/12/14 05:26:53;;;;;;;46.67;24.25;;;5.30;99.90;;;;;;5032912;28;20026;-70
2020/12/14 05:29:37;;;;;;;43.75;24.55;;;5.30;99.90;;;;;;5032575;28;20033;-68
2020/12/14 05:32:08;;;;;;;40.15;24.48;;;5.30;99.90;;;;;;5033107;28;20021;-69
2020/12/14 05:34:35;;;;;;;43.35;25.75;;;5.30;99.90;;;;;;5032895;28;20029;-68
2020/12/14 05:37:09;;;;;;;52.45;29.02;;;5.40;99.90;;;;;;5032714;28;20033;-68
2020/12/14 05:39:39;;;;;;;44.08;24.58;;;5.30;99.90;;;;;;5032783;28;20116;-69
2020/12/14 05:42:24;;;;;;;58.55;28.23;;;5.40;99.90;;;;;;5032901;28;20473;-69
2020/12/14 05:44:50;;;;;;;61.80;31.25;;;5.40;99.90;;;;;;5032533;28;20013;-70
2020/12/14 05:47:30;;;;;;;48.70;27.25;;;5.40;99.90;;;;;;5031617;28;20029;-68
2020/12/14 05:49:59;;;;;;;49.63;28.58;;;5.40;99.90;;;;;;5032173;28;20395;-69
2020/12/14 05:52:33;;;;;;;56.10;29.80;;;5.40;99.90;;;;;;5032624;28;20371;-68
2020/12/14 05:55:01;;;;;;;57.00;28.13;;;5.40;99.90;;;;;;5033129;28;20486;-69
2020/12/14 05:57:29;;;;;;;54.78;31.50;;;5.40;99.90;;;;;;5036352;28;20029;-69
2020/12/14 06:00:07;;;;;;;47.58;25.02;;;5.40;99.90;;;;;;5035773;28;20033;-69
2020/12/14 06:02:34;;;;;;;46.40;25.58;;;5.40;99.90;;;;;;5034112;28;20021;-69
2020/12/14 06:05:03;;;;;;;39.80;23.10;;;5.40;99.90;;;;;;5035879;28;20108;-69
2020/12/14 06:07:31;;;;;;;44.03;23.60;;;5.40;99.90;;;;;;5036404;28;20018;-69
2020/12/14 06:10:15;;;;;;;47.40;26.02;;;5.40;99.90;;;;;;5036588;28;20033;-70
2020/12/14 06:12:44;;;;;;;50.70;26.60;;;5.40;99.90;;;;;;5035781;28;20056;-69
2020/12/14 06:15:12;;;;;;;46.15;24.45;;;5.40;99.90;;;;;;5036297;28;20036;-69
2020/12/14 06:17:39;;;;;;;43.80;24.17;;;5.40;99.90;;;;;;5035552;28;20029;-69
2020/12/14 06:20:16;;;;;;;44.50;25.42;;;5.40;99.90;;;;;;5035849;28;20026;-70
2020/12/14 06:23:02;;;;;;;52.75;28.67;;;5.40;99.90;;;;;;5035998;28;20040;-68
2020/12/14 06:25:28;;;;;;;48.83;26.05;;;5.30;99.90;;;;;;5035663;28;20037;-69
2020/12/14 06:27:54;;;;;;;50.35;25.50;;;5.30;99.90;;;;;;5036240;28;20108;-68
2020/12/14 06:30:29;;;;;;;47.05;25.52;;;5.30;99.90;;;;;;5036032;28;20102;-70
2020/12/14 06:33:02;;;;;;;48.90;22.95;;;5.40;99.90;;;;;;5039877;28;20424;-70
2020/12/14 06:35:49;;;;;;;47.38;25.15;;;5.40;99.90;;;;;;5052241;28;20364;-69
2020/12/14 06:38:40;;;;;;;42.38;20.92;;;5.30;99.90;;;;;;5047374;28;20037;-69
2020/12/14 06:41:20;;;;;;;39.15;22.63;;;5.20;99.90;;;;;;5052034;28;20029;-69
2020/12/14 06:43:48;;;;;;;42.42;21.70;;;5.20;99.90;;;;;;5053584;28;20040;-69
2020/12/14 06:46:25;;;;;;;42.38;24.63;;;5.20;99.90;;;;;;5051882;28;20021;-69
2020/12/14 06:48:53;;;;;;;51.78;26.05;;;5.30;99.90;;;;;;5051653;28;20029;-69
2020/12/14 06:51:18;;;;;;;40.47;25.42;;;5.20;99.90;;;;;;5050092;28;20021;-68
2020/12/14 06:53:50;;;;;;;45.65;21.92;;;5.30;99.90;;;;;;5051782;28;20024;-68
2020/12/14 06:56:36;;;;;;;44.67;24.13;;;5.30;99.90;;;;;;5052249;28;20048;-68
2020/12/14 06:59:28;;;;;;;41.17;22.52;;;5.30;99.90;;;;;;5044260;28;20054;-68
2020/12/14 07:02:14;;;;;;;63.05;31.58;;;5.30;99.90;;;;;;5034691;28;20104;-68
2020/12/14 07:04:41;;;;;;;45.92;25.83;;;5.30;99.90;;;;;;5035410;28;20036;-69
2020/12/14 07:07:07;;;;;;;46.90;25.65;;;5.20;99.90;;;;;;5032960;28;20036;-69
2020/12/14 07:09:40;;;;;;;47.58;25.98;;;5.30;99.90;;;;;;5034873;28;20021;-69
2020/12/14 07:12:09;;;;;;;47.60;25.90;;;5.20;99.90;;;;;;5034901;28;20060;-68
2020/12/14 07:14:48;;;;;;;47.22;26.65;;;5.20;99.90;;;;;;5034834;28;20017;-68
2020/12/14 07:17:24;;;;;;;49.78;27.85;;;5.30;99.90;;;;;;5034776;28;20052;-69
2020/12/14 07:19:57;;;;;;;50.10;26.17;;;5.30;99.90;;;;;;5035046;28;20025;-68
2020/12/14 07:22:24;;;;;;;42.88;23.80;;;5.30;99.90;;;;;;5038590;28;20026;-69
2020/12/14 07:25:01;;;;;;;45.50;25.90;;;5.30;99.90;;;;;;5034878;28;20025;-69
2020/12/14 07:27:28;;;;;;;45.28;26.90;;;5.30;99.90;;;;;;5034737;28;20032;-69
2020/12/14 07:30:08;;;;;;;60.47;30.33;;;5.30;99.90;;;;;;5039321;28;20040;-68
2020/12/14 07:32:38;;;;;;;50.92;26.67;;;5.30;99.90;;;;;;5044312;28;20441;-70
2020/12/14 07:35:06;;;;;;;50.38;28.35;;;5.30;99.90;;;;;;5050527;28;20028;-69
2020/12/14 07:37:33;;;;;;;53.70;28.73;;;5.30;99.90;;;;;;5050796;28;20032;-69
2020/12/14 07:39:58;;;;;;;47.05;25.40;;;5.30;99.90;;;;;;5044883;28;20033;-68
2020/12/14 07:42:29;;;;;;;45.13;25.02;;;5.30;99.90;;;;;;5047127;28;20047;-69
2020/12/14 07:45:18;;;;;;;43.88;25.02;;;5.30;99.90;;;;;;5044196;28;20022;-69
2020/12/14 07:47:47;;;;;;;44.60;23.13;;;5.30;99.90;;;;;;5051747;28;20459;-68
2020/12/14 07:50:14;;;;;;;53.03;26.45;;;5.30;99.90;;;;;;5046386;28;20725;-68
2020/12/14 07:52:40;;;;;;;47.33;25.48;;;5.30;99.90;;;;;;5050307;28;20021;-69
2020/12/14 07:55:08;;;;;;;46.95;25.73;;;5.40;99.90;;;;;;5045032;28;20060;-70
2020/12/14 07:57:39;;;;;;;44.50;28.05;;;5.40;99.90;;;;;;5045571;28;20056;-68
2020/12/14 08:00:10;;;;;;;57.60;30.48;;;5.30;99.90;;;;;;5044121;28;20041;-69
2020/12/14 08:02:38;;;;;;;53.13;26.83;;;5.40;99.90;;;;;;5033544;28;20025;-69
2020/12/14 08:05:14;;;;;;;60.85;30.90;;;5.40;99.90;;;;;;5034291;28;20149;-69
2020/12/14 08:07:48;;;;;;;51.10;24.95;;;5.40;99.90;;;;;;5033843;28;20033;-68
2020/12/14 08:10:14;;;;;;;52.58;26.42;;;5.40;99.90;;;;;;5036342;28;20523;-69
2020/12/14 08:12:42;;;;;;;41.65;24.58;;;5.40;99.90;;;;;;5037617;28;20040;-69
2020/12/14 08:15:17;;;;;;;44.08;25.23;;;5.40;99.90;;;;;;5046189;28;20028;-70
2020/12/14 08:17:44;;;;;;;45.22;23.55;;;5.30;99.90;;;;;;5042072;28;20025;-70
2020/12/14 08:20:42;;;;;;;39.08;22.13;;;5.40;99.90;;;;;;5033497;28;20092;-70
2020/12/14 08:23:19;;;;;;;47.25;23.58;;;5.40;99.90;;;;;;5033520;28;20065;-70
2020/12/14 08:25:46;;;;;;;48.65;26.20;;;5.40;99.90;;;;;;5036488;28;20025;-71
2020/12/14 08:28:12;;;;;;;46.20;23.52;;;5.40;99.90;;;;;;5037914;28;20102;-70
2020/12/14 08:30:42;;;;;;;51.25;28.13;;;5.40;99.90;;;;;;5042447;28;20025;-70
2020/12/14 08:33:16;;;;;;;56.55;32.70;;;5.40;99.90;;;;;;5037472;28;20037;-69
2020/12/14 08:35:44;;;;;;;52.97;30.00;;;5.50;99.90;;;;;;5028693;28;20527;-72
2020/12/14 08:38:21;;;;;;;89.55;42.20;;;5.50;99.90;;;;;;5025206;28;20149;-72
2020/12/14 08:41:01;;;;;;;59.33;31.65;;;5.40;99.90;;;;;;5030135;28;20128;-70
2020/12/14 08:43:29;;;;;;;41.40;22.25;;;5.50;99.90;;;;;;5029540;28;20029;-71
2020/12/14 08:46:03;;;;;;;46.42;25.73;;;5.50;99.90;;;;;;5029889;28;20103;-69
2020/12/14 08:48:30;;;;;;;69.20;36.38;;;5.50;99.90;;;;;;5029491;28;20122;-69
2020/12/14 08:51:04;;;;;;;64.47;35.28;;;5.70;99.90;;;;;;5029921;28;20045;-69
2020/12/14 08:53:30;;;;;;;47.33;26.55;;;5.60;99.90;;;;;;5035102;28;20029;-69
2020/12/14 08:56:03;;;;;;;59.45;30.85;;;5.60;99.90;;;;;;5029803;28;20099;-69
2020/12/14 08:58:29;;;;;;;55.30;29.48;;;5.60;99.90;;;;;;5032882;28;20060;-68
2020/12/14 09:00:55;;;;;;;44.88;23.20;;;5.60;99.90;;;;;;5032979;28;20033;-70
2020/12/14 09:03:21;;;;;;;45.63;25.27;;;5.60;99.90;;;;;;5031841;28;20022;-70
2020/12/14 09:05:46;;;;;;;55.05;30.20;;;5.70;99.90;;;;;;5031989;28;20029;-69
2020/12/14 09:08:17;;;;;;;55.90;34.35;;;5.70;99.90;;;;;;5032608;28;20044;-71
2020/12/14 09:10:56;;;;;;;62.03;34.50;;;5.70;99.90;;;;;;5024334;28;20036;-69
2020/12/14 09:13:22;;;;;;;58.45;30.85;;;5.80;99.90;;;;;;5033068;28;20036;-70
2020/12/14 09:15:53;;;;;;;60.53;34.45;;;5.70;99.90;;;;;;5039987;28;20487;-69
2020/12/14 09:18:20;;;;;;;61.45;34.83;;;5.80;99.90;;;;;;5040700;28;20036;-72
2020/12/14 09:20:46;;;;;;;61.28;31.10;;;5.70;99.90;;;;;;5033750;28;20471;-70
2020/12/14 09:23:19;;;;;;;76.47;40.60;;;5.80;99.90;;;;;;5036048;28;20413;-72
2020/12/14 09:25:45;;;;;;;;;;;5.80;99.90;;;;;;5047550;28;20032;-72
2020/12/14 09:28:11;;;;;;;62.35;32.10;;;5.80;99.90;;;;;;5032702;28;20016;-70
2020/12/14 09:30:37;;;;;;;50.78;26.70;;;5.70;99.90;;;;;;5046055;28;20025;-70
2020/12/14 09:33:02;;;;;;;55.20;28.48;;;5.60;99.90;;;;;;5050249;28;20561;-71
2020/12/14 09:35:28;;;;;;;59.72;29.92;;;5.60;99.90;;;;;;5041715;28;20021;-72
2020/12/14 09:37:54;;;;;;;62.67;31.85;;;5.60;99.90;;;;;;5044553;28;20459;-70
2020/12/14 09:40:19;;;;;;;57.55;29.63;;;5.70;99.90;;;;;;5035223;28;20083;-70
2020/12/14 09:42:45;;;;;;;40.50;23.05;;;5.80;99.90;;;;;;5036148;28;20021;-68
2020/12/14 09:45:11;;;;;;;35.85;21.13;;;6.20;99.90;;;;;;5036161;28;20036;-68
2020/12/14 09:47:37;;;;;;;40.92;23.08;;;6.50;99.90;;;;;;5036126;28;20391;-68
2020/12/14 09:50:03;;;;;;;44.85;24.10;;;6.40;99.90;;;;;;5034233;28;20459;-69
2020/12/14 09:52:29;;;;;;;49.03;27.00;;;6.20;99.90;;;;;;5041637;28;20104;-69
2020/12/14 09:54:55;;;;;;;48.08;24.80;;;6.20;99.90;;;;;;5042819;28;20424;-69
2020/12/14 09:57:20;;;;;;;58.40;30.35;;;6.20;99.90;;;;;;5035542;28;20471;-70
2020/12/14 09:59:46;;;;;;;56.53;31.65;;;6.20;99.90;;;;;;5036043;28;20464;-69
2020/12/14 10:02:12;;;;;;;58.22;29.60;;;6.10;99.90;;;;;;5035570;28;20072;-68
2020/12/14 10:04:38;;;;;;;41.13;25.35;;;6.00;99.90;;;;;;5035304;28;20100;-71
2020/12/14 10:07:03;;;;;;;62.22;33.50;;;6.00;99.90;;;;;;5034942;28;20523;-68
2020/12/14 10:09:29;;;;;;;56.65;30.38;;;6.00;99.90;;;;;;5043634;28;20036;-69
2020/12/14 10:11:56;;;;;;;53.33;30.67;;;6.00;99.90;;;;;;5042580;28;20479;-69
2020/12/14 10:14:22;;;;;;;55.47;27.75;;;6.00;99.90;;;;;;5034857;28;20030;-68
2020/12/14 10:16:50;;;;;;;60.63;32.55;;;6.00;99.90;;;;;;5035498;28;20427;-70
2020/12/14 10:19:16;;;;;;;52.47;29.67;;;6.00;99.90;;;;;;5035061;28;20029;-70
2020/12/14 10:21:42;;;;;;;55.47;28.65;;;6.10;99.90;;;;;;5035977;28;20037;-70
2020/12/14 10:24:08;;;;;;;55.72;29.52;;;6.10;99.90;;;;;;5035487;28;20503;-70
2020/12/14 10:26:36;;;;;;;66.68;33.13;;;6.00;99.90;;;;;;5040191;28;20025;-71
2020/12/14 10:29:01;;;;;;;50.45;26.67;;;6.10;99.90;;;;;;5041116;28;20030;-69
2020/12/14 10:31:27;;;;;;;50.88;26.85;;;6.00;99.90;;;;;;5035522;28;20020;-68
2020/12/14 10:33:55;;;;;;;76.72;36.28;;;5.90;99.90;;;;;;5035081;28;20025;-70
2020/12/14 10:36:21;;;;;;;43.30;21.67;;;5.90;99.90;;;;;;5034936;28;20459;-71
2020/12/14 10:38:47;;;;;;;54.28;28.58;;;5.80;99.90;;;;;;5035759;28;20083;-69
2020/12/14 10:41:16;;;;;;;62.42;32.22;;;5.80;99.90;;;;;;5034057;28;20555;-70
2020/12/14 10:43:41;;;;;;;85.32;41.35;;;5.90;99.90;;;;;;5035491;28;20026;-72
2020/12/14 10:46:07;;;;;;;61.15;30.08;;;5.90;99.90;;;;;;5035254;28;20072;-75
2020/12/14 10:48:33;;;;;;;74.05;35.00;;;5.80;99.90;;;;;;5034696;28;20463;-70
2020/12/14 10:50:58;;;;;;;47.53;26.60;;;5.90;99.90;;;;;;5035028;28;20104;-70
2020/12/14 10:53:24;;;;;;;42.58;21.40;;;5.80;99.90;;;;;;5036563;28;20090;-69
2020/12/14 10:55:50;;;;;;;45.58;23.13;;;5.80;99.90;;;;;;5043800;28;20052;-69
2020/12/14 10:58:16;;;;;;;42.05;23.10;;;5.80;99.90;;;;;;5034613;28;20029;-68
2020/12/14 11:00:42;;;;;;;39.70;22.55;;;5.80;99.90;;;;;;5024045;28;20029;-67
2020/12/14 11:03:08;;;;;;;35.78;18.55;;;5.70;99.90;;;;;;5034463;28;20021;-69
2020/12/14 11:05:34;;;;;;;35.30;18.35;;;5.70;99.90;;;;;;5034852;28;20120;-69
2020/12/14 11:07:59;;;;;;;38.92;20.33;;;5.70;99.90;;;;;;5044585;28;20056;-68
2020/12/14 11:10:25;;;;;;;52.03;24.58;;;5.80;99.90;;;;;;5035198;28;20033;-69
2020/12/14 11:12:51;;;;;;;48.55;27.27;;;5.80;99.90;;;;;;5035002;28;20049;-69
2020/12/14 11:15:17;;;;;;;61.08;30.85;;;5.70;99.90;;;;;;5034462;28;20044;-71
2020/12/14 11:17:43;;;;;;;37.67;20.33;;;5.70;99.90;;;;;;5024531;28;20025;-70
2020/12/14 11:20:09;;;;;;;39.28;21.20;;;5.70;99.90;;;;;;5032263;28;20427;-72
2020/12/14 11:22:36;;;;;;;44.60;23.17;;;5.70;99.90;;;;;;5033219;28;20030;-70
2020/12/14 11:25:04;;;;;;;47.35;25.95;;;5.70;99.90;;;;;;5034012;28;20029;-69
2020/12/14 11:27:30;;;;;;;53.15;27.83;;;5.60;99.90;;;;;;5033718;28;20033;-71
2020/12/14 11:29:55;;;;;;;61.08;33.30;;;5.70;99.90;;;;;;5033195;28;20030;-71
2020/12/14 11:32:21;;;;;;;57.33;31.85;;;5.60;99.90;;;;;;5033448;28;20057;-69
2020/12/14 11:34:47;;;;;;;46.75;25.05;;;5.70;99.90;;;;;;5033423;28;20041;-68
2020/12/14 11:37:12;;;;;;;61.25;35.15;;;5.50;99.90;;;;;;5030767;28;20036;-72
2020/12/14 11:39:38;;;;;;;53.65;30.08;;;5.60;99.90;;;;;;5033624;28;20087;-70
2020/12/14 11:42:04;;;;;;;62.92;33.65;;;5.70;99.90;;;;;;5033708;28;20032;-69
2020/12/14 11:44:30;;;;;;;54.28;27.92;;;5.70;99.90;;;;;;5033020;28;20372;-70
2020/12/14 11:46:55;;;;;;;44.83;24.10;;;5.70;99.90;;;;;;5033359;28;20448;-72
2020/12/14 11:49:21;;;;;;;45.65;25.73;;;5.70;99.90;;;;;;5032912;28;20025;-71
2020/12/14 11:51:47;;;;;;;46.47;23.02;;;5.60;99.90;;;;;;5047020;28;20052;-70
2020/12/14 11:54:13;;;;;;;44.10;26.40;;;5.50;99.90;;;;;;5049964;28;20036;-70
2020/12/14 11:56:39;;;;;;;51.40;24.88;;;5.50;99.90;;;;;;5044082;28;20049;-70
2020/12/14 11:59:04;;;;;;;33.92;20.30;;;5.40;99.90;;;;;;5045997;28;20040;-70
2020/12/14 12:01:30;;;;;;;40.13;21.45;;;5.50;99.90;;;;;;5046917;28;20024;-69
2020/12/14 12:03:56;;;;;;;32.72;16.85;;;5.50;99.90;;;;;;5045329;28;20036;-70
2020/12/14 12:06:29;;;;;;;41.50;20.92;;;5.50;99.90;;;;;;5048227;28;20025;-69
2020/12/14 12:08:55;;;;;;;42.85;20.83;;;5.50;99.90;;;;;;5039061;28;20021;-68
2020/12/14 12:11:23;;;;;;;46.60;23.05;;;5.50;99.90;;;;;;5042832;28;20034;-68
2020/12/14 12:13:49;;;;;;;36.67;21.27;;;5.60;99.90;;;;;;5032888;28;20486;-69
2020/12/14 12:16:15;;;;;;;36.58;18.88;;;5.60;99.90;;;;;;5032298;28;20459;-69
2020/12/14 12:18:42;;;;;;;38.00;21.95;;;5.60;99.90;;;;;;5032568;28;20116;-69
2020/12/14 12:21:09;;;;;;;39.15;21.23;;;5.60;99.90;;;;;;5044507;28;20468;-70
2020/12/14 12:23:36;;;;;;;39.03;20.50;;;5.60;99.90;;;;;;5031675;28;20115;-70
2020/12/14 12:26:02;;;;;;;29.80;16.75;;;5.60;99.90;;;;;;5037357;28;20040;-70
2020/12/14 12:28:27;;;;;;;38.67;19.88;;;5.70;99.90;;;;;;5049403;28;20032;-70
2020/12/14 12:30:53;;;;;;;34.60;20.15;;;5.60;99.90;;;;;;5042715;28;20029;-70
2020/12/14 12:33:19;;;;;;;34.90;18.38;;;5.60;99.90;;;;;;5046925;28;20132;-69
2020/12/14 12:35:45;;;;;;;37.60;19.00;;;5.60;99.90;;;;;;5048536;28;20124;-70
2020/12/14 12:38:10;;;;;;;36.72;20.85;;;5.60;99.90;;;;;;5048796;28;20029;-69
2020/12/14 12:40:36;;;;;;;42.38;15.98;;;5.60;99.90;;;;;;5047944;28;20021;-72
2020/12/14 12:43:02;;;;;;;36.70;19.15;;;5.60;99.90;;;;;;5046674;28;20059;-70